»·PEaware :: N642SP KSDM-KFUL

N642SP :: KSDM-KFUL

FLIGHT INFORMATION

Flight Status: Arrived
Operator: Privately registered:
United States
More flights under this callsign
Pilot: Wes T. (5776)
Aircraft: CESSNA 172 SKYHAWK
(C172)
More flights by this aircraft type
Origin: KSDM Brown Mun
United States
Destination: KFUL Fullerton Mun
United States
More flights between these airports :: More routes between these airports
Route: +MZB V23 SLI
File this flight plan on PilotEdge
Remarks: TEC Route SANN3 after MZB
Altitude:
(Current/Filed)
6,000ft
Speed:
(Current/Filed)
110kts
Departed: 23-May-15 05:56 PM
Arrived: 23-May-15 07:02 PM
Distance/Time
Traveled:
93nm/1:06
Distance/Time
To Go:
Arrived

Flight Plot

Page will automatically refresh every two minutes.

Flight plan parsing failed; only flown route is shown


Map Options




Map Legend


Flown Route
Filed Route
Departure Airport
Arrival Airport
Navaid (VOR, NDB)
Fix

Horizontal Profiles

Position Reports

Time Latitude Longitude Heading Altitude Ground
Speed
23-May-15 17:35 32.570763 -116.989831 195 529ft 0kts
23-May-15 17:36 32.570762 -116.989832 195 529ft 0kts
23-May-15 17:37 32.570760 -116.989832 195 529ft 0kts
23-May-15 17:38 32.570758 -116.989833 195 529ft 0kts
23-May-15 17:39 32.570757 -116.989833 195 529ft 0kts
23-May-15 17:40 32.570755 -116.989834 195 529ft 0kts
23-May-15 17:41 32.570753 -116.989834 195 529ft 0kts
23-May-15 17:42 32.570752 -116.989835 195 529ft 0kts
23-May-15 17:43 32.570663 -116.989906 231 529ft 6kts
23-May-15 17:44 32.571329 -116.988830 95 529ft 6kts
23-May-15 17:45 32.570898 -116.985100 96 529ft 15kts
23-May-15 17:46 32.570418 -116.979767 94 529ft 16kts
23-May-15 17:47 32.569883 -116.973437 95 529ft 19kts
23-May-15 17:48 32.569520 -116.968070 13 529ft 4kts
23-May-15 17:49 32.569545 -116.968111 263 529ft 0kts
23-May-15 17:50 32.570651 -116.967999 3 529ft 14kts
23-May-15 17:51 32.571087 -116.967965 4 529ft 0kts
23-May-15 17:52 32.571898 -116.970794 274 529ft 50kts
23-May-15 17:53 32.577006 -116.990714 293 1207ft 69kts
23-May-15 17:54 32.586566 -117.013715 292 1961ft 86kts
23-May-15 17:55 32.597324 -117.041653 292 2675ft 97kts
23-May-15 17:56 32.608618 -117.071801 292 3000ft 103kts
23-May-15 17:57 32.620437 -117.103790 292 3001ft 106kts
23-May-15 17:58 32.632138 -117.135740 292 3135ft 96kts
23-May-15 17:59 32.643211 -117.166309 292 3653ft 105kts
23-May-15 18:00 32.654325 -117.197761 291 4248ft 101kts
23-May-15 18:01 32.677201 -117.212422 349 4848ft 102kts
23-May-15 18:02 32.705266 -117.215736 349 5446ft 100kts
23-May-15 18:03 32.732873 -117.218975 349 5984ft 104kts
23-May-15 18:04 32.762578 -117.222737 349 5989ft 108kts
23-May-15 18:05 32.791982 -117.229980 335 5992ft 108kts
23-May-15 18:06 32.820476 -117.242054 336 5990ft 108kts
23-May-15 18:07 32.849118 -117.253455 337 6000ft 107kts
23-May-15 18:08 32.877165 -117.265093 336 5986ft 106kts
23-May-15 18:09 32.905052 -117.276797 336 5982ft 105kts
23-May-15 18:10 32.932746 -117.288430 336 5981ft 105kts
23-May-15 18:11 32.960559 -117.300094 336 5991ft 108kts
23-May-15 18:12 32.993356 -117.313990 337 5993ft 117kts
23-May-15 18:13 33.022487 -117.326192 336 5982ft 106kts
23-May-15 18:14 33.050381 -117.337928 336 5983ft 105kts
23-May-15 18:15 33.078098 -117.349613 336 5982ft 105kts
23-May-15 18:16 33.105863 -117.361324 336 5982ft 105kts
23-May-15 18:17 33.133622 -117.373038 336 5982ft 105kts
23-May-15 18:18 33.161390 -117.384761 336 5981ft 105kts
23-May-15 18:19 33.184453 -117.394504 336 5981ft 105kts
23-May-15 18:20 33.212208 -117.406231 336 5982ft 105kts
23-May-15 18:21 33.243752 -117.421479 314 5981ft 103kts
23-May-15 18:22 33.261317 -117.441756 316 5984ft 108kts
23-May-15 18:23 33.286993 -117.471645 315 5983ft 111kts
23-May-15 18:24 33.305419 -117.493159 315 5982ft 111kts
23-May-15 18:25 33.327610 -117.519090 315 5983ft 111kts
23-May-15 18:26 33.349814 -117.545053 315 5980ft 111kts
23-May-15 18:27 33.372001 -117.571018 315 5982ft 111kts
23-May-15 18:28 33.394182 -117.596995 315 5980ft 111kts
23-May-15 18:29 33.416289 -117.622904 315 5982ft 111kts
23-May-15 18:30 33.438450 -117.648893 315 5982ft 111kts
23-May-15 18:31 33.460611 -117.674908 315 5982ft 111kts
23-May-15 18:32 33.482768 -117.700933 315 5981ft 111kts
23-May-15 18:33 33.504970 -117.726406 316 5981ft 110kts
23-May-15 18:34 33.526967 -117.752010 315 5981ft 109kts
23-May-15 18:35 33.548430 -117.777240 313 5981ft 104kts
23-May-15 18:36 33.568820 -117.801260 313 6001ft 102kts
23-May-15 18:37 33.589132 -117.825201 313 6002ft 102kts
23-May-15 18:38 33.609448 -117.849069 316 5972ft 105kts
23-May-15 18:39 33.639448 -117.843991 11 5454ft 112kts
23-May-15 18:40 33.670373 -117.833234 11 4962ft 118kts
23-May-15 18:41 33.702853 -117.822487 10 4466ft 123kts
23-May-15 18:42 33.736942 -117.812108 10 3997ft 126kts
23-May-15 18:43 33.769331 -117.802753 10 3969ft 113kts
23-May-15 18:44 33.798943 -117.794017 10 3964ft 107kts
23-May-15 18:45 33.827475 -117.785623 10 3963ft 104kts
23-May-15 18:46 33.855227 -117.776307 12 3778ft 106kts
23-May-15 18:47 33.884727 -117.766192 12 3166ft 110kts
23-May-15 18:48 33.912522 -117.756743 12 3007ft 96kts
23-May-15 18:49 33.937692 -117.749971 331 2981ft 92kts
23-May-15 18:50 33.927816 -117.770588 214 3014ft 95kts
23-May-15 18:51 33.909876 -117.792487 252 2926ft 99kts
23-May-15 18:52 33.900700 -117.823959 253 2556ft 90kts
23-May-15 18:53 33.895573 -117.853574 257 2562ft 90kts
23-May-15 18:54 33.890683 -117.886012 256 2126ft 103kts
23-May-15 18:55 33.884486 -117.918676 251 1374ft 89kts
23-May-15 18:56 33.878643 -117.945565 252 810ft 64kts
23-May-15 18:57 33.874853 -117.965103 250 423ft 54kts
23-May-15 18:58 33.872114 -117.979262 259 99ft 3kts
23-May-15 18:59 33.871363 -117.978915 120 99ft 7kts

Navigation Log

Ident Type
Flight plan parsing failed, navigation log unavailable